createdAt,value
2022-11-01T00:01:05.815Z,6.10
2022-11-01T00:03:32.832Z,8.02
2022-11-01T00:05:59.388Z,7.75
2022-11-01T00:08:25.784Z,6.28
2022-11-01T00:10:52.175Z,5.63
2022-11-01T00:13:18.576Z,7.95
2022-11-01T00:15:45.253Z,6.18
2022-11-01T00:18:11.657Z,8.40
2022-11-01T00:20:38.080Z,5.32
2022-11-01T00:23:04.751Z,8.73
2022-11-01T00:25:31.421Z,8.23
2022-11-01T00:27:57.839Z,6.60
2022-11-01T00:30:24.240Z,7.53
2022-11-01T00:32:50.714Z,7.35
2022-11-01T00:35:17.175Z,8.30
2022-11-01T00:37:43.572Z,8.70
2022-11-01T00:40:10.596Z,6.30
2022-11-01T00:42:37.013Z,6.15
2022-11-01T00:45:05.031Z,6.43
2022-11-01T00:47:31.435Z,7.97
2022-11-01T00:49:57.795Z,10.07
2022-11-01T00:52:24.312Z,8.15
2022-11-01T00:54:50.707Z,6.53
2022-11-01T00:57:17.210Z,9.30
2022-11-01T00:59:43.674Z,7.90
2022-11-01T01:02:10.258Z,7.53
2022-11-01T01:04:41.464Z,6.47
2022-11-01T01:07:08.142Z,6.47
2022-11-01T01:09:34.713Z,5.20
2022-11-01T01:12:01.851Z,7.65
2022-11-01T01:14:32.232Z,6.95
2022-11-01T01:16:59.234Z,7.45
2022-11-01T01:19:25.697Z,9.52
2022-11-01T01:21:52.109Z,5.88
2022-11-01T01:24:18.497Z,8.40
2022-11-01T01:26:44.887Z,5.93
2022-11-01T01:29:11.436Z,6.80
2022-11-01T01:31:37.975Z,6.22
2022-11-01T01:34:04.780Z,4.03
2022-11-01T01:36:31.227Z,5.72
2022-11-01T01:38:57.609Z,4.80
2022-11-01T01:41:50.268Z,10.27
2022-11-01T01:45:01.484Z,5.10
2022-11-01T01:47:32.380Z,5.45
2022-11-01T01:50:13.403Z,5.55
2022-11-01T01:52:54.747Z,4.72
2022-11-01T01:55:26.373Z,3.38
2022-11-01T01:57:55.333Z,4.38
2022-11-01T02:00:22.369Z,6.60
2022-11-01T02:02:48.816Z,4.68
2022-11-01T02:05:22.226Z,5.80
2022-11-01T02:07:49.605Z,5.13
2022-11-01T02:10:16.844Z,4.00
2022-11-01T02:12:47.166Z,5.38
2022-11-01T02:15:14.913Z,7.25
2022-11-01T02:18:16.735Z,5.97
2022-11-01T02:20:49.051Z,4.55
2022-11-01T02:23:24.681Z,4.30
2022-11-01T02:26:04.508Z,7.05
2022-11-01T02:29:05.922Z,10.55
2022-11-01T02:31:51.528Z,7.38
2022-11-01T02:34:43.644Z,6.15
2022-11-01T02:37:28.565Z,4.70
2022-11-01T02:40:09.512Z,7.00
2022-11-01T02:42:42.765Z,7.05
2022-11-01T02:45:29.220Z,10.90
2022-11-01T02:48:00.117Z,6.20
2022-11-01T02:50:28.493Z,5.40
2022-11-01T02:52:55.211Z,7.30
2022-11-01T02:55:29.753Z,4.72
2022-11-01T02:57:59.484Z,5.13
2022-11-01T03:00:32.505Z,5.22
2022-11-01T03:03:13.247Z,7.75
2022-11-01T03:05:39.608Z,7.55
2022-11-01T03:08:09.892Z,2.72
2022-11-01T03:10:57.404Z,3.70
2022-11-01T03:13:48.039Z,2.22
2022-11-01T03:16:22.630Z,3.95
2022-11-01T03:19:09.098Z,7.05
2022-11-01T03:21:42.354Z,1.98
2022-11-01T03:24:19.893Z,2.58
2022-11-01T03:26:52.537Z,1.95
2022-11-01T03:29:21.089Z,6.03
2022-11-01T03:31:50.336Z,1.30
2022-11-01T03:34:19.878Z,1.15
2022-11-01T03:37:00.823Z,1.02
2022-11-01T03:39:33.745Z,1.33
2022-11-01T03:42:05.729Z,1.27
2022-11-01T03:44:40.932Z,3.10
2022-11-01T03:47:07.802Z,0.80
2022-11-01T03:49:34.199Z,3.05
2022-11-01T03:52:00.642Z,1.50
2022-11-01T03:54:29.621Z,0.85
2022-11-01T03:56:56.329Z,0.70
2022-11-01T03:59:23.402Z,1.40
2022-11-01T04:01:49.921Z,2.17
2022-11-01T04:04:16.456Z,1.60
2022-11-01T04:06:42.857Z,0.90
2022-11-01T04:09:09.712Z,1.08
2022-11-01T04:11:36.116Z,1.55
2022-11-01T04:14:20.797Z,4.03
2022-11-01T04:17:05.470Z,1.08
2022-11-01T04:19:50.339Z,2.17
2022-11-01T04:22:19.368Z,1.48
2022-11-01T04:24:48.517Z,3.03
2022-11-01T04:27:14.909Z,1.50
2022-11-01T04:29:41.297Z,1.98
2022-11-01T04:32:07.785Z,0.80
2022-11-01T04:34:43.120Z,1.98
2022-11-01T04:37:11.001Z,4.05
2022-11-01T04:39:37.601Z,1.85
2022-11-01T04:42:04.287Z,0.80
2022-11-01T04:44:30.732Z,1.20
2022-11-01T04:46:57.125Z,1.77
2022-11-01T04:49:23.529Z,0.80
2022-11-01T04:51:49.916Z,1.30
2022-11-01T04:54:16.328Z,0.88
2022-11-01T04:56:42.704Z,0.52
2022-11-01T04:59:09.091Z,0.82
2022-11-01T05:01:35.703Z,0.50
2022-11-01T05:04:02.249Z,1.23
2022-11-01T05:06:29.518Z,1.00
2022-11-01T05:08:55.932Z,1.27
2022-11-01T05:11:25.388Z,0.50
2022-11-01T05:13:52.365Z,0.77
2022-11-01T05:16:20.140Z,0.30
2022-11-01T05:18:47.165Z,0.60
2022-11-01T05:21:13.662Z,0.50
2022-11-01T05:23:40.179Z,0.60
2022-11-01T05:26:07.157Z,0.70
2022-11-01T05:28:33.615Z,0.85
2022-11-01T05:31:00.138Z,0.50
2022-11-01T05:33:26.542Z,0.40
2022-11-01T05:35:52.923Z,1.30
2022-11-01T05:38:19.393Z,0.77
2022-11-01T05:40:45.787Z,0.45
2022-11-01T05:43:12.195Z,0.50
2022-11-01T05:45:38.663Z,0.30
2022-11-01T05:48:05.431Z,0.30
2022-11-01T05:50:32.177Z,0.40
2022-11-01T05:53:07.550Z,0.50
2022-11-01T05:55:34.781Z,0.40
2022-11-01T05:58:01.249Z,0.35
2022-11-01T06:00:27.672Z,0.40
2022-11-01T06:02:54.070Z,0.30
2022-11-01T06:05:20.465Z,1.20
2022-11-01T06:07:46.840Z,0.38
2022-11-01T06:10:13.216Z,0.40
2022-11-01T06:12:39.613Z,0.40
2022-11-01T06:15:06.429Z,0.45
2022-11-01T06:17:32.855Z,0.60
2022-11-01T06:19:59.629Z,0.47
2022-11-01T06:22:26.045Z,0.35
2022-11-01T06:24:52.435Z,0.40
2022-11-01T06:27:18.831Z,0.40
2022-11-01T06:29:45.313Z,0.40
2022-11-01T06:32:11.743Z,0.40
2022-11-01T06:34:42.268Z,0.85
2022-11-01T06:37:11.322Z,0.60
2022-11-01T06:39:37.806Z,0.30
2022-11-01T06:42:04.352Z,0.40
2022-11-01T06:44:30.719Z,0.50
2022-11-01T06:46:57.128Z,0.60
2022-11-01T06:49:23.617Z,0.75
2022-11-01T06:51:50.063Z,3.30
2022-11-01T06:54:16.542Z,0.55
2022-11-01T06:56:43.037Z,0.47
2022-11-01T06:59:09.524Z,0.50
2022-11-01T07:01:36.091Z,0.50
2022-11-01T07:04:02.641Z,1.85
2022-11-01T07:06:30.828Z,0.50
2022-11-01T07:08:59.106Z,0.63
2022-11-01T07:11:30.999Z,0.50
2022-11-01T07:13:59.201Z,0.47
2022-11-01T07:16:26.350Z,0.60
2022-11-01T07:18:52.777Z,0.52
2022-11-01T07:21:19.399Z,0.43
2022-11-01T07:23:45.853Z,0.60
2022-11-01T07:26:12.269Z,1.35
2022-11-01T07:28:39.517Z,0.90
2022-11-01T07:31:06.607Z,0.50
2022-11-01T07:33:33.033Z,0.82
2022-11-01T07:36:00.973Z,1.33
2022-11-01T07:38:27.427Z,1.50
2022-11-01T07:40:54.735Z,3.15
2022-11-01T07:43:21.476Z,4.18
2022-11-01T07:45:48.143Z,2.53
2022-11-01T07:48:18.241Z,0.60
2022-11-01T07:50:45.579Z,3.10
2022-11-01T07:53:17.870Z,0.68
2022-11-01T07:55:45.859Z,0.95
2022-11-01T07:58:13.593Z,0.52
2022-11-01T08:00:41.316Z,0.70
2022-11-01T08:03:15.798Z,2.80
2022-11-01T08:05:43.768Z,1.70
2022-11-01T08:08:10.873Z,3.35
2022-11-01T08:10:38.341Z,1.45
2022-11-01T08:13:05.945Z,2.10
2022-11-01T08:15:33.577Z,2.08
2022-11-01T08:18:01.218Z,1.98
2022-11-01T08:20:27.867Z,2.15
2022-11-01T08:22:54.444Z,2.08
2022-11-01T08:25:21.328Z,2.65
2022-11-01T08:27:47.976Z,6.90
2022-11-01T08:30:15.689Z,1.80
2022-11-01T08:32:42.110Z,1.80
2022-11-01T08:35:09.251Z,1.80
2022-11-01T08:37:35.641Z,2.53
2022-11-01T08:40:03.227Z,5.75
2022-11-01T08:42:29.621Z,4.45
2022-11-01T08:44:56.011Z,2.15
2022-11-01T08:47:22.501Z,4.10
2022-11-01T08:49:48.904Z,1.83
2022-11-01T08:52:15.324Z,2.50
2022-11-01T08:54:41.702Z,0.60
2022-11-01T08:57:08.323Z,0.55
2022-11-01T08:59:34.701Z,1.10
2022-11-01T09:02:01.193Z,1.00
2022-11-01T09:04:27.700Z,2.30
2022-11-01T09:06:54.127Z,0.80
2022-11-01T09:09:20.636Z,3.70
2022-11-01T09:11:47.032Z,6.65
2022-11-01T09:14:13.412Z,1.95
2022-11-01T09:16:39.952Z,4.13
2022-11-01T09:19:06.455Z,2.58
2022-11-01T09:21:32.932Z,1.42
2022-11-01T09:23:59.771Z,2.63
2022-11-01T09:26:27.224Z,0.70
2022-11-01T09:28:58.547Z,2.38
2022-11-01T09:31:25.356Z,1.85
2022-11-01T09:33:55.983Z,2.42
2022-11-01T09:36:23.385Z,2.70
2022-11-01T09:38:50.437Z,1.23
2022-11-01T09:41:47.110Z,4.30
2022-11-01T09:44:25.363Z,2.35
2022-11-01T09:47:02.668Z,3.88
2022-11-01T09:49:33.681Z,1.25
2022-11-01T09:52:00.322Z,1.48
2022-11-01T09:54:27.761Z,4.45
2022-11-01T09:57:14.127Z,2.35
2022-11-01T09:59:48.445Z,1.00
2022-11-01T10:02:38.968Z,3.15
2022-11-01T10:05:45.867Z,5.95
2022-11-01T10:08:37.653Z,3.13
2022-11-01T10:11:40.611Z,1.30
2022-11-01T10:14:29.584Z,1.75
2022-11-01T10:17:23.591Z,3.15
2022-11-01T10:19:50.670Z,2.67
2022-11-01T10:22:23.829Z,1.98
2022-11-01T10:25:10.792Z,2.13
2022-11-01T10:27:55.129Z,2.42
2022-11-01T10:30:21.995Z,2.03
2022-11-01T10:33:34.793Z,7.03
2022-11-01T10:36:05.181Z,3.38
2022-11-01T10:41:36.785Z,3.97
2022-11-01T10:44:09.393Z,1.42
2022-11-01T10:46:42.177Z,2.40
2022-11-01T10:49:35.068Z,5.53
2022-11-01T10:52:15.571Z,2.70
2022-11-01T10:54:43.630Z,3.03
2022-11-01T10:57:17.971Z,1.95
2022-11-01T10:59:47.597Z,2.05
2022-11-01T11:02:23.403Z,1.20
2022-11-01T11:04:50.402Z,2.03
2022-11-01T11:07:21.637Z,1.52
2022-11-01T11:09:51.082Z,3.97
2022-11-01T11:12:19.860Z,3.60
2022-11-01T11:14:51.179Z,2.45
2022-11-01T11:17:24.835Z,2.10
2022-11-01T11:19:54.965Z,2.38
2022-11-01T11:22:22.999Z,2.30
2022-11-01T11:24:50.719Z,3.47
2022-11-01T11:27:25.461Z,2.60
2022-11-01T11:29:55.111Z,1.70
2022-11-01T11:32:27.609Z,5.68
2022-11-01T11:34:58.294Z,3.60
2022-11-01T11:37:29.137Z,3.10
2022-11-01T11:40:24.261Z,1.77
2022-11-01T11:42:52.634Z,1.80
2022-11-01T11:45:30.901Z,3.53
2022-11-01T11:48:15.375Z,2.05
2022-11-01T11:50:43.045Z,1.42
2022-11-01T11:53:20.176Z,4.50
2022-11-01T11:55:52.578Z,2.90
2022-11-01T11:58:42.411Z,3.75
2022-11-01T12:01:11.681Z,1.95
2022-11-01T12:03:52.036Z,6.38
2022-11-01T12:06:24.994Z,2.67
2022-11-01T12:08:54.129Z,4.28
2022-11-01T12:11:22.865Z,2.53
2022-11-01T12:14:03.844Z,1.95
2022-11-01T12:16:39.247Z,2.20
2022-11-01T12:19:06.434Z,3.80
2022-11-01T12:21:43.410Z,1.15
2022-11-01T12:24:24.359Z,1.50
2022-11-01T12:26:53.786Z,3.40
2022-11-01T12:29:55.879Z,3.17
2022-11-01T12:32:33.234Z,1.77
2022-11-01T12:35:04.416Z,1.27
2022-11-01T12:37:49.364Z,3.05
2022-11-01T12:40:25.267Z,3.58
2022-11-01T12:45:50.660Z,1.85
2022-11-01T12:48:30.331Z,3.70
2022-11-01T12:50:56.761Z,0.95
2022-11-01T12:53:29.115Z,3.70
2022-11-01T12:55:58.000Z,1.25
2022-11-01T12:58:28.807Z,1.80
2022-11-01T13:01:13.501Z,3.03
2022-11-01T13:04:07.094Z,2.00
2022-11-01T13:06:46.109Z,2.22
2022-11-01T13:09:30.579Z,3.53
2022-11-01T13:12:09.485Z,3.72
2022-11-01T13:14:44.945Z,2.55
2022-11-01T13:17:33.080Z,1.75
2022-11-01T13:20:18.019Z,2.20
2022-11-01T13:22:47.672Z,0.98
2022-11-01T13:25:17.010Z,1.25
2022-11-01T13:28:00.364Z,2.20
2022-11-01T13:30:27.226Z,2.00
2022-11-01T13:33:36.304Z,1.38
2022-11-01T13:36:08.257Z,1.40
2022-11-01T13:39:16.424Z,2.67
2022-11-01T13:41:53.116Z,1.48
2022-11-01T13:44:23.913Z,3.05
2022-11-01T13:47:02.450Z,1.52
2022-11-01T13:49:44.754Z,1.80
2022-11-01T13:52:28.943Z,1.63
2022-11-01T13:55:00.107Z,1.38
2022-11-01T13:57:27.512Z,2.58
2022-11-01T13:59:57.999Z,1.83
2022-11-01T14:02:27.501Z,0.90
2022-11-01T14:05:01.665Z,1.40
2022-11-01T14:07:53.271Z,1.13
2022-11-01T14:10:22.493Z,1.20
2022-11-01T14:13:06.977Z,2.05
2022-11-01T14:16:00.493Z,1.52
2022-11-01T14:18:27.556Z,2.20
2022-11-01T14:20:55.473Z,1.33
2022-11-01T14:23:28.008Z,2.88
2022-11-01T14:26:19.858Z,1.65
2022-11-01T14:28:48.880Z,4.45
2022-11-01T14:31:19.117Z,1.13
2022-11-01T14:33:49.358Z,2.67
2022-11-01T14:36:19.420Z,1.30
2022-11-01T14:39:02.410Z,1.75
2022-11-01T14:41:34.186Z,0.65
2022-11-01T14:44:11.612Z,2.53
2022-11-01T14:46:46.688Z,0.70
2022-11-01T14:49:48.968Z,1.98
2022-11-01T14:52:31.108Z,0.70
2022-11-01T14:55:06.566Z,1.60
2022-11-01T14:57:34.791Z,1.10
2022-11-01T15:00:26.449Z,0.60
2022-11-01T15:02:53.058Z,1.27
2022-11-01T15:05:19.528Z,0.70
2022-11-01T15:07:52.250Z,0.70
2022-11-01T15:10:19.216Z,2.20
2022-11-01T15:12:57.621Z,0.68
2022-11-01T15:15:28.334Z,0.77
2022-11-01T15:18:01.738Z,2.22
2022-11-01T15:20:42.555Z,2.03
2022-11-01T15:23:19.405Z,1.40
2022-11-01T15:25:53.236Z,0.90
2022-11-01T15:28:25.376Z,2.00
2022-11-01T15:31:01.498Z,1.17
2022-11-01T15:33:32.603Z,1.27
2022-11-01T15:36:21.971Z,1.55
2022-11-01T15:38:51.613Z,1.10
2022-11-01T15:41:33.159Z,0.80
2022-11-01T15:44:06.088Z,0.80
2022-11-01T15:46:43.043Z,4.63
2022-11-01T15:49:25.676Z,2.47
2022-11-01T15:52:05.184Z,1.02
2022-11-01T15:54:34.746Z,0.95
2022-11-01T15:57:09.202Z,1.08
2022-11-01T15:59:50.765Z,1.80
2022-11-01T16:02:27.878Z,2.83
2022-11-01T16:04:55.889Z,2.35
2022-11-01T16:07:23.412Z,4.00
2022-11-01T16:09:53.962Z,1.45
2022-11-01T16:12:31.881Z,1.60
2022-11-01T16:15:01.442Z,1.30
2022-11-01T16:17:39.447Z,0.95
2022-11-01T16:20:24.564Z,3.60
2022-11-01T16:22:51.505Z,1.75
2022-11-01T16:25:26.476Z,4.10
2022-11-01T16:27:56.006Z,1.20
2022-11-01T16:30:51.288Z,1.00
2022-11-01T16:33:36.379Z,1.92
2022-11-01T16:36:24.259Z,2.35
2022-11-01T16:38:52.805Z,2.33
2022-11-01T16:41:39.590Z,2.60
2022-11-01T16:44:15.791Z,1.48
2022-11-01T16:46:42.348Z,0.95
2022-11-01T16:49:27.712Z,1.42
2022-11-01T16:51:56.318Z,2.15
2022-11-01T16:54:24.043Z,1.83
2022-11-01T16:56:53.684Z,1.67
2022-11-01T16:59:36.239Z,4.10
2022-11-01T17:02:15.244Z,4.72
2022-11-01T17:04:42.616Z,2.17
2022-11-01T17:07:11.554Z,1.98
2022-11-01T17:09:39.559Z,1.42
2022-11-01T17:12:07.112Z,1.52
2022-11-01T17:14:35.706Z,1.58
2022-11-01T17:17:08.410Z,2.50
2022-11-01T17:19:38.177Z,1.35
2022-11-01T17:22:08.618Z,1.40
2022-11-01T17:24:35.268Z,1.83
2022-11-01T17:27:05.130Z,1.98
2022-11-01T17:29:32.685Z,3.53
2022-11-01T17:32:00.875Z,3.38
2022-11-01T17:34:28.721Z,3.00
2022-11-01T17:36:57.172Z,1.20
2022-11-01T17:39:27.442Z,0.90
2022-11-01T17:41:53.902Z,9.20
2022-11-01T17:44:20.642Z,3.13
2022-11-01T17:46:47.145Z,1.42
2022-11-01T17:49:15.647Z,1.67
2022-11-01T17:51:42.985Z,3.55
2022-11-01T17:54:09.867Z,1.92
2022-11-01T17:56:36.494Z,2.45
2022-11-01T17:59:02.949Z,1.55
2022-11-01T18:01:30.272Z,2.15
2022-11-01T18:03:56.752Z,2.67
2022-11-01T18:06:23.968Z,1.38
2022-11-01T18:08:52.006Z,1.48
2022-11-01T18:11:39.504Z,2.17
2022-11-01T18:14:28.262Z,1.15
2022-11-01T18:17:04.763Z,1.35
2022-11-01T18:19:52.739Z,1.08
2022-11-01T18:22:41.100Z,1.13
2022-11-01T18:25:32.441Z,2.20
2022-11-01T18:28:01.062Z,6.95
2022-11-01T18:30:27.816Z,2.10
2022-11-01T18:33:20.369Z,4.07
2022-11-01T18:35:53.085Z,1.40
2022-11-01T18:38:41.245Z,1.85
2022-11-01T18:41:13.134Z,1.95
2022-11-01T18:43:40.084Z,1.17
2022-11-01T18:46:26.737Z,1.85
2022-11-01T18:49:01.907Z,4.93
2022-11-01T18:51:31.311Z,1.13
2022-11-01T18:54:00.826Z,3.13
2022-11-01T18:56:27.458Z,3.03
2022-11-01T18:58:55.575Z,2.80
2022-11-01T19:01:32.308Z,2.60
2022-11-01T19:04:14.409Z,1.70
2022-11-01T19:06:41.049Z,1.92
2022-11-01T19:09:25.929Z,3.97
2022-11-01T19:12:11.369Z,3.80
2022-11-01T19:14:39.241Z,2.17
2022-11-01T19:17:16.339Z,2.15
2022-11-01T19:19:42.875Z,1.40
2022-11-01T19:22:28.048Z,2.97
2022-11-01T19:24:54.697Z,2.40
2022-11-01T19:27:22.877Z,1.27
2022-11-01T19:29:55.391Z,3.88
2022-11-01T19:32:25.253Z,1.90
2022-11-01T19:34:52.818Z,1.05
2022-11-01T19:37:25.680Z,2.15
2022-11-01T19:39:52.854Z,2.35
2022-11-01T19:42:32.096Z,1.52
2022-11-01T19:45:24.895Z,2.85
2022-11-01T19:47:51.922Z,2.28
2022-11-01T19:50:23.739Z,2.28
2022-11-01T19:52:51.817Z,2.45
2022-11-01T19:55:57.069Z,1.85
2022-11-01T19:58:30.968Z,3.97
2022-11-01T20:01:21.323Z,4.32
2022-11-01T20:03:48.122Z,1.35
2022-11-01T20:06:24.258Z,2.33
2022-11-01T20:08:54.590Z,1.10
2022-11-01T20:11:21.217Z,2.63
2022-11-01T20:13:47.788Z,2.30
2022-11-01T20:16:14.391Z,1.20
2022-11-01T20:18:41.337Z,2.72
2022-11-01T20:21:07.960Z,1.25
2022-11-01T20:23:35.538Z,1.50
2022-11-01T20:26:06.168Z,1.45
2022-11-01T20:28:33.032Z,2.95
2022-11-01T20:30:59.820Z,3.80
2022-11-01T20:33:26.392Z,2.60
2022-11-01T20:35:53.140Z,1.95
2022-11-01T20:40:51.351Z,6.53
2022-11-01T20:43:17.856Z,3.33
2022-11-01T20:45:44.309Z,2.10
2022-11-01T20:48:10.897Z,2.03
2022-11-01T20:50:37.640Z,1.88
2022-11-01T20:53:05.469Z,2.10
2022-11-01T20:55:33.883Z,2.03
2022-11-01T20:58:00.744Z,3.60
2022-11-01T21:00:27.607Z,4.97
2022-11-01T21:02:56.410Z,2.35
2022-11-01T21:05:31.020Z,1.40
2022-11-01T21:08:12.911Z,1.83
2022-11-01T21:10:42.011Z,2.67
2022-11-01T21:13:30.738Z,1.30
2022-11-01T21:15:59.179Z,1.98
2022-11-01T21:18:39.101Z,1.55
2022-11-01T21:21:19.764Z,1.45
2022-11-01T21:23:46.604Z,2.45
2022-11-01T21:26:18.162Z,3.03
2022-11-01T21:28:50.822Z,2.78
2022-11-01T21:31:27.098Z,1.98
2022-11-01T21:34:04.227Z,2.25
2022-11-01T21:36:50.715Z,2.05
2022-11-01T21:39:25.243Z,2.17
2022-11-01T21:41:55.777Z,2.70
2022-11-01T21:44:26.864Z,2.22
2022-11-01T21:46:56.229Z,1.45
2022-11-01T21:49:28.584Z,1.38
2022-11-01T21:51:59.018Z,1.27
2022-11-01T21:54:26.659Z,2.00
2022-11-01T21:56:54.012Z,1.33
2022-11-01T21:59:20.845Z,2.25
2022-11-01T22:01:48.003Z,5.13
2022-11-01T22:04:15.775Z,1.30
2022-11-01T22:06:44.015Z,1.85
2022-11-01T22:09:11.391Z,2.67
2022-11-01T22:11:38.170Z,1.23
2022-11-01T22:14:05.456Z,1.60
2022-11-01T22:16:32.229Z,1.83
2022-11-01T22:18:58.861Z,3.05
2022-11-01T22:21:25.789Z,1.70
2022-11-01T22:23:52.645Z,3.65
2022-11-01T22:26:19.270Z,2.63
2022-11-01T22:28:45.938Z,2.28
2022-11-01T22:31:13.076Z,1.85
2022-11-01T22:33:39.625Z,2.25
2022-11-01T22:36:10.448Z,2.75
2022-11-01T22:38:43.043Z,1.52
2022-11-01T22:41:16.634Z,4.18
2022-11-01T22:43:46.422Z,1.40
2022-11-01T22:46:36.139Z,1.65
2022-11-01T22:49:31.102Z,1.83
2022-11-01T22:52:05.125Z,1.75
2022-11-01T22:54:38.678Z,1.35
2022-11-01T22:57:08.153Z,1.50
2022-11-01T22:59:38.709Z,1.88
2022-11-01T23:02:34.372Z,2.65
2022-11-01T23:05:20.489Z,2.63
2022-11-01T23:07:59.509Z,1.63
2022-11-01T23:10:31.796Z,2.42
2022-11-01T23:13:41.933Z,2.85
2022-11-01T23:16:27.628Z,2.25
2022-11-01T23:18:57.607Z,1.75
2022-11-01T23:21:24.858Z,2.83
2022-11-01T23:23:51.405Z,1.33
2022-11-01T23:26:19.583Z,1.25
2022-11-01T23:28:48.496Z,3.28
2022-11-01T23:31:16.398Z,2.63
2022-11-01T23:33:45.116Z,2.45
2022-11-01T23:36:33.373Z,3.22
2022-11-01T23:39:01.565Z,2.45
2022-11-01T23:41:51.887Z,2.25
2022-11-01T23:44:24.623Z,1.55
2022-11-01T23:46:52.096Z,1.33
2022-11-01T23:49:29.574Z,2.03
2022-11-01T23:51:56.129Z,4.47
2022-11-01T23:54:33.809Z,2.35
2022-11-01T23:57:00.977Z,4.00
2022-11-01T23:59:27.712Z,3.15
